createdAt,value
2023-02-04T00:03:55.917Z,-7.63
2023-02-04T00:09:00.720Z,-7.57
2023-02-04T00:14:06.510Z,-7.46
2023-02-04T00:19:11.371Z,-7.37
2023-02-04T00:24:15.958Z,-7.28
2023-02-04T00:29:20.570Z,-7.08
2023-02-04T00:34:25.506Z,-6.83
2023-02-04T00:39:30.358Z,-6.59
2023-02-04T00:44:37.649Z,-6.35
2023-02-04T00:49:42.375Z,-6.16
2023-02-04T00:54:47.132Z,-5.94
2023-02-04T00:59:52.007Z,-5.74
2023-02-04T01:04:56.751Z,-5.52
2023-02-04T01:10:01.561Z,-5.28
2023-02-04T01:15:07.014Z,-5.05
2023-02-04T01:20:22.445Z,-4.77
2023-02-04T01:25:27.934Z,-4.54
2023-02-04T01:30:33.170Z,-4.31
2023-02-04T01:35:38.139Z,-4.12
2023-02-04T01:40:45.554Z,-3.89
2023-02-04T01:45:53.071Z,-3.66
2023-02-04T01:51:19.197Z,-3.38
2023-02-04T01:56:29.008Z,-3.13
2023-02-04T02:01:46.392Z,-2.85
2023-02-04T02:07:04.686Z,-2.56
2023-02-04T02:12:09.469Z,-2.25
2023-02-04T02:17:14.373Z,-1.94
2023-02-04T02:22:31.209Z,-1.65
2023-02-04T02:27:36.142Z,-1.39
2023-02-04T02:32:41.383Z,-1.18
2023-02-04T02:37:46.566Z,-0.93
2023-02-04T02:42:55.098Z,-0.71
2023-02-04T02:48:02.122Z,-0.51
2023-02-04T02:53:12.702Z,-0.26
2023-02-04T02:58:33.556Z,0.06
2023-02-04T03:03:40.190Z,0.37
2023-02-04T03:08:46.379Z,0.59
2023-02-04T03:13:53.210Z,0.80
2023-02-04T03:18:58.297Z,1.01
2023-02-04T03:24:04.430Z,1.19
2023-02-04T03:29:11.529Z,1.40
2023-02-04T03:34:16.387Z,1.60
2023-02-04T03:39:21.685Z,1.80
2023-02-04T03:44:31.411Z,2.00
2023-02-04T03:49:37.461Z,2.17
2023-02-04T03:54:44.790Z,2.38
2023-02-04T03:59:49.756Z,2.59
2023-02-04T04:04:54.694Z,2.80
2023-02-04T04:09:59.570Z,2.98
2023-02-04T04:15:04.836Z,3.19
2023-02-04T04:20:10.492Z,3.38
2023-02-04T04:25:15.512Z,3.54
2023-02-04T04:30:22.077Z,3.66
2023-02-04T04:35:27.811Z,3.78
2023-02-04T04:40:33.371Z,3.90
2023-02-04T04:45:38.582Z,4.03
2023-02-04T04:50:44.086Z,4.14
2023-02-04T04:55:49.106Z,4.29
2023-02-04T05:00:53.568Z,4.47
2023-02-04T05:05:58.675Z,4.55
2023-02-04T05:11:05.426Z,4.60
2023-02-04T05:16:13.553Z,4.76
2023-02-04T05:21:18.667Z,4.87
2023-02-04T05:26:30.335Z,5.04
2023-02-04T05:31:37.524Z,5.22
2023-02-04T05:36:43.795Z,5.37
2023-02-04T05:41:52.103Z,5.52
2023-02-04T05:46:57.752Z,5.61
2023-02-04T05:52:02.998Z,5.72
2023-02-04T05:57:08.259Z,5.79
2023-02-04T06:02:13.388Z,5.84
2023-02-04T06:07:19.055Z,5.90
2023-02-04T06:12:24.564Z,6.03
2023-02-04T06:17:30.610Z,6.18
2023-02-04T06:22:35.991Z,6.28
2023-02-04T06:27:42.303Z,6.36
2023-02-04T06:32:48.334Z,6.38
2023-02-04T06:37:53.524Z,6.35
2023-02-04T06:43:00.865Z,6.33
2023-02-04T06:48:06.431Z,6.28
2023-02-04T06:53:12.046Z,6.30
2023-02-04T06:58:18.686Z,6.28
2023-02-04T07:03:23.915Z,6.29
2023-02-04T07:08:29.250Z,6.27
2023-02-04T07:13:34.885Z,6.26
2023-02-04T07:18:41.197Z,6.22
2023-02-04T07:23:46.627Z,6.23
2023-02-04T07:28:52.237Z,6.23
2023-02-04T07:33:59.964Z,6.18
2023-02-04T07:39:05.739Z,6.16
2023-02-04T07:44:11.677Z,6.05
2023-02-04T07:49:18.413Z,5.94
2023-02-04T07:54:24.025Z,5.83
2023-02-04T07:59:30.699Z,5.70
2023-02-04T08:04:37.326Z,5.58
2023-02-04T08:09:43.010Z,5.42
2023-02-04T08:14:48.326Z,5.31
2023-02-04T08:19:54.002Z,5.17
2023-02-04T08:24:59.527Z,4.99
2023-02-04T08:30:05.771Z,4.88
2023-02-04T08:48:45.947Z,4.55
2023-02-04T08:53:52.194Z,4.45
2023-02-04T08:58:57.319Z,4.35
2023-02-04T09:04:03.844Z,4.25
2023-02-04T09:09:08.967Z,4.10
2023-02-04T09:14:14.162Z,3.92
2023-02-04T09:19:25.369Z,3.75
2023-02-04T09:24:32.078Z,3.54
2023-02-04T09:29:37.208Z,3.35
2023-02-04T09:34:42.730Z,3.19
2023-02-04T09:39:47.922Z,3.00
2023-02-04T09:44:53.532Z,2.82
2023-02-04T09:49:59.257Z,2.62
2023-02-04T09:55:04.154Z,2.48
2023-02-04T10:00:21.974Z,2.35
2023-02-04T10:05:32.679Z,2.22
2023-02-04T10:10:37.685Z,2.18
2023-02-04T10:15:42.542Z,2.15
2023-02-04T10:20:47.373Z,2.02
2023-02-04T10:25:52.261Z,1.93
2023-02-04T10:30:57.374Z,1.76
2023-02-04T10:36:03.402Z,1.60
2023-02-04T10:41:08.100Z,1.44
2023-02-04T10:46:14.183Z,1.29
2023-02-04T10:51:19.062Z,1.18
2023-02-04T10:56:24.443Z,1.00
2023-02-04T11:01:31.623Z,0.89
2023-02-04T11:06:36.896Z,0.73
2023-02-04T11:11:46.928Z,0.68
2023-02-04T11:16:53.407Z,0.63
2023-02-04T11:22:23.605Z,0.58
2023-02-04T11:27:43.012Z,0.53
2023-02-04T11:33:03.285Z,0.50
2023-02-04T11:38:30.022Z,0.43
2023-02-04T11:43:39.175Z,0.36
2023-02-04T11:48:45.498Z,0.27
2023-02-04T11:53:54.697Z,0.17
2023-02-04T11:59:01.143Z,0.09
2023-02-04T12:04:09.210Z,-0.04
2023-02-04T12:09:33.267Z,-0.23
2023-02-04T12:14:41.456Z,-0.39
2023-02-04T12:19:46.605Z,-0.61
2023-02-04T12:24:52.912Z,-0.74
2023-02-04T12:29:58.031Z,-0.87
2023-02-04T12:35:03.022Z,-1.02
2023-02-04T12:40:09.031Z,-1.18
2023-02-04T12:45:17.884Z,-1.27
2023-02-04T12:50:27.635Z,-1.40
2023-02-04T12:55:33.689Z,-1.49
2023-02-04T13:00:40.002Z,-1.54
2023-02-04T13:05:45.836Z,-1.68
2023-02-04T13:10:53.283Z,-1.78
2023-02-04T13:15:58.653Z,-1.85
2023-02-04T13:21:04.399Z,-1.92
2023-02-04T13:26:12.078Z,-2.00
2023-02-04T13:31:19.520Z,-1.99
2023-02-04T13:36:25.316Z,-1.93
2023-02-04T13:41:31.233Z,-1.87
2023-02-04T13:46:39.905Z,-1.86
2023-02-04T13:51:45.576Z,-1.91
2023-02-04T13:56:51.487Z,-1.91
2023-02-04T14:01:57.313Z,-1.88
2023-02-04T14:07:03.376Z,-1.88
2023-02-04T14:12:09.746Z,-1.91
2023-02-04T14:17:14.307Z,-1.92
2023-02-04T14:22:23.923Z,-1.97
2023-02-04T14:27:29.605Z,-2.07
2023-02-04T14:32:35.184Z,-2.19
2023-02-04T14:37:41.015Z,-2.31
2023-02-04T14:42:46.457Z,-2.43
2023-02-04T14:47:54.115Z,-2.51
2023-02-04T14:53:01.614Z,-2.60
2023-02-04T14:58:08.891Z,-2.70
2023-02-04T15:03:18.718Z,-2.75
2023-02-04T15:08:24.682Z,-2.79
2023-02-04T15:13:31.193Z,-2.79
2023-02-04T15:18:36.929Z,-2.81
2023-02-04T15:23:59.265Z,-2.82
2023-02-04T15:29:06.820Z,-2.87
2023-02-04T15:34:12.577Z,-2.87
2023-02-04T15:39:19.967Z,-2.92
2023-02-04T15:44:28.251Z,-3.01
2023-02-04T15:49:35.400Z,-3.15
2023-02-04T15:54:42.613Z,-3.25
2023-02-04T15:59:48.739Z,-3.32
2023-02-04T16:04:55.766Z,-3.30
2023-02-04T16:10:01.134Z,-3.27
2023-02-04T16:15:08.554Z,-3.22
2023-02-04T16:20:15.117Z,-3.16
2023-02-04T16:25:20.902Z,-3.13
2023-02-04T16:30:27.696Z,-3.11
2023-02-04T16:35:36.095Z,-3.15
2023-02-04T16:40:40.987Z,-3.24
2023-02-04T16:45:46.715Z,-3.38
2023-02-04T16:50:51.939Z,-3.48
2023-02-04T16:55:57.576Z,-3.59
2023-02-04T17:01:03.235Z,-3.69
2023-02-04T17:06:08.270Z,-3.75
2023-02-04T17:11:33.498Z,-3.82
2023-02-04T17:16:38.988Z,-3.82
2023-02-04T17:21:44.373Z,-3.81
2023-02-04T17:26:50.081Z,-3.79
2023-02-04T17:31:57.244Z,-3.81
2023-02-04T17:37:02.749Z,-3.83
2023-02-04T17:42:07.938Z,-3.81
2023-02-04T17:47:13.923Z,-3.86
2023-02-04T17:52:19.197Z,-3.98
2023-02-04T17:57:24.313Z,-4.10
2023-02-04T18:02:32.881Z,-4.20
2023-02-04T18:07:38.643Z,-4.29
2023-02-04T18:12:43.843Z,-4.39
2023-02-04T18:17:48.865Z,-4.46
2023-02-04T18:23:04.060Z,-4.43
2023-02-04T18:28:17.898Z,-4.40
2023-02-04T18:33:28.325Z,-4.38
2023-02-04T18:38:40.439Z,-4.33
2023-02-04T18:43:55.200Z,-4.37
2023-02-04T18:49:32.693Z,-4.38
2023-02-04T18:54:39.531Z,-4.46
2023-02-04T18:59:44.861Z,-4.58
2023-02-04T19:04:49.980Z,-4.63
2023-02-04T19:09:57.695Z,-4.72
2023-02-04T19:15:03.324Z,-4.77
2023-02-04T19:20:20.851Z,-4.84
2023-02-04T19:25:36.834Z,-4.84
2023-02-04T19:30:47.989Z,-4.81
2023-02-04T19:35:53.552Z,-4.70
2023-02-04T19:40:58.761Z,-4.72
2023-02-04T19:46:18.398Z,-4.75
2023-02-04T19:51:32.043Z,-4.86
2023-02-04T19:56:39.798Z,-4.96
2023-02-04T20:01:45.299Z,-5.03
2023-02-04T20:06:50.771Z,-5.12
2023-02-04T20:11:58.503Z,-5.12
2023-02-04T20:17:12.284Z,-5.22
2023-02-04T20:22:24.622Z,-5.25
2023-02-04T20:27:37.962Z,-5.32
2023-02-04T20:32:47.516Z,-5.30
2023-02-04T20:37:58.553Z,-5.26
2023-02-04T20:43:08.370Z,-5.28
2023-02-04T20:48:19.032Z,-5.34
2023-02-04T20:53:30.959Z,-5.37
2023-02-04T20:58:43.466Z,-5.42
2023-02-04T21:03:50.656Z,-5.42
2023-02-04T21:08:58.702Z,-5.44
2023-02-04T21:14:03.540Z,-5.52
2023-02-04T21:19:07.578Z,-5.58
2023-02-04T21:24:12.215Z,-5.55
2023-02-04T21:29:17.021Z,-5.56
2023-02-04T21:34:21.648Z,-5.59
2023-02-04T21:39:27.415Z,-5.64
2023-02-04T21:44:32.161Z,-5.59
2023-02-04T21:49:39.812Z,-5.60
2023-02-04T21:54:46.137Z,-5.49
2023-02-04T21:59:51.277Z,-5.37
2023-02-04T22:04:56.078Z,-5.33
2023-02-04T22:10:00.818Z,-5.35
2023-02-04T22:15:05.371Z,-5.43
2023-02-04T22:20:11.878Z,-5.55
2023-02-04T22:25:19.714Z,-5.68
2023-02-04T22:30:27.310Z,-5.79
2023-02-04T22:35:36.273Z,-5.85
2023-02-04T22:40:41.608Z,-5.78
2023-02-04T22:45:48.190Z,-5.82
2023-02-04T22:50:53.440Z,-5.94
2023-02-04T22:55:59.009Z,-5.98
2023-02-04T23:01:04.499Z,-5.96
2023-02-04T23:06:10.123Z,-5.94
2023-02-04T23:11:15.445Z,-5.95
2023-02-04T23:16:21.063Z,-5.97
2023-02-04T23:21:26.630Z,-5.98
2023-02-04T23:26:30.975Z,-6.01
2023-02-04T23:31:36.296Z,-6.01
2023-02-04T23:36:41.003Z,-6.03
2023-02-04T23:41:45.196Z,-6.02
2023-02-04T23:46:50.513Z,-5.94
2023-02-04T23:51:55.269Z,-5.81
2023-02-04T23:57:00.171Z,-5.69
